Weather reports worldwide

Advertisment
Nidingen, Sweden (2518): temperature & dewpoint: 14.10.2019 23:00:00 - 20.10.2019 23:00:00 (CEST)Nidingen, Sweden (2518): wind speed & gusts: 14.10.2019 23:00:00 - 20.10.2019 23:00:00 (CEST)Nidingen, Sweden (2518): wind direction: 14.10.2019 23:00:00 - 20.10.2019 23:00:00 (CEST)
Date & Time tt [°C] td [°C] ff [km/h] ff [kn] fx [km/h] fx [kn] dd
20.10.2019 23:00:00 - - - - - - -
20.10.2019 22:00:00 11,9 11,0 10 5 14 7 SSW
20.10.2019 21:00:00 11,9 10,8 13 7 19 11 SW
20.10.2019 20:00:00 11,8 10,5 15 8 18 10 SW
20.10.2019 19:00:00 11,8 10,4 16 9 19 10 SW
20.10.2019 18:00:00 11,9 10,1 16 9 19 10 SW
20.10.2019 17:00:00 12,2 10,3 16 9 22 12 SW
20.10.2019 16:00:00 12,4 10,6 17 9 25 13 SSW
20.10.2019 15:00:00 12,7 10,8 23 12 26 14 SW
20.10.2019 14:00:00 12,8 10,5 20 11 26 14 SSW
20.10.2019 13:00:00 12,7 11,1 23 12 26 14 SSW
20.10.2019 12:00:00 12,3 10,5 24 13 28 15 S
20.10.2019 11:00:00 12,1 10,3 21 12 27 14 SSW
20.10.2019 10:00:00 11,8 10,0 22 12 28 15 SSW
20.10.2019 09:00:00 11,7 10,4 23 12 29 16 SSW
20.10.2019 08:00:00 11,8 10,9 20 11 25 13 SSW
20.10.2019 07:00:00 11,4 10,5 21 11 26 14 SSW
20.10.2019 06:00:00 11,6 10,5 23 12 29 15 SW
20.10.2019 05:00:00 11,8 10,2 26 14 33 18 SW
20.10.2019 04:00:00 12,2 11,1 30 16 36 20 SSW
20.10.2019 03:00:00 12,3 11,5 29 15 45 24 S
20.10.2019 02:00:00 11,8 11,3 37 20 46 25 SSE
20.10.2019 01:00:00 11,5 11,0 34 18 39 21 SE
20.10.2019 00:00:00 11,5 10,9 34 18 39 21 SE
19.10.2019 23:00:00 11,8 11,2 31 17 39 21 SSE
19.10.2019 22:00:00 11,9 11,0 30 16 39 21 S
19.10.2019 21:00:00 12,1 10,7 35 19 42 23 S
19.10.2019 20:00:00 12,3 10,9 27 15 33 18 S
19.10.2019 19:00:00 12,4 10,5 30 16 39 21 S
19.10.2019 18:00:00 12,4 10,5 32 17 40 22 S
19.10.2019 17:00:00 12,3 10,0 35 19 44 24 SSW
19.10.2019 16:00:00 12,3 10,0 37 20 48 26 S
19.10.2019 15:00:00 12,4 10,1 40 22 48 26 SSW
19.10.2019 14:00:00 12,3 9,9 44 24 55 30 SSW
19.10.2019 13:00:00 12,2 10,1 41 22 58 31 SSW
19.10.2019 12:00:00 12,1 9,7 50 27 60 32 SSW
19.10.2019 11:00:00 12,2 9,9 48 26 58 31 SSW
19.10.2019 10:00:00 12,1 10,0 48 26 63 34 SSW
19.10.2019 09:00:00 12,1 10,0 50 27 66 36 SSW
19.10.2019 08:00:00 12,2 10,3 47 26 63 34 SSW
19.10.2019 07:00:00 12,0 10,1 51 28 61 33 SSW
19.10.2019 06:00:00 12,2 9,8 51 28 66 35 SSW
19.10.2019 05:00:00 12,3 10,0 48 26 58 31 SSW
19.10.2019 04:00:00 12,2 10,1 43 23 65 35 SSW
19.10.2019 03:00:00 12,2 10,1 48 26 62 34 SSW
19.10.2019 02:00:00 12,2 9,9 44 24 56 31 SSW
19.10.2019 01:00:00 12,1 9,5 46 25 64 34 SSW
19.10.2019 00:00:00 12,1 9,8 50 27 60 33 SSW
18.10.2019 23:00:00 12,3 10,9 52 28 64 35 S
18.10.2019 22:00:00 12,5 11,9 42 23 51 28 SE
18.10.2019 21:00:00 12,9 11,6 36 19 45 24 SE
18.10.2019 20:00:00 12,9 11,6 35 19 44 24 SE
18.10.2019 19:00:00 12,7 11,8 37 20 43 23 SE
18.10.2019 18:00:00 12,6 12,0 28 15 32 17 SE
18.10.2019 17:00:00 12,2 11,4 21 11 27 14 SE
18.10.2019 16:00:00 12,2 10,9 21 11 36 20 SSE
18.10.2019 15:00:00 12,4 11,5 30 16 43 23 S
18.10.2019 14:00:00 12,2 11,6 40 22 49 27 S
18.10.2019 13:00:00 10,6 10,3 22 12 32 17 E
18.10.2019 12:00:00 10,1 9,6 28 15 33 18 E
18.10.2019 11:00:00 10,0 9,4 26 14 35 19 E
18.10.2019 10:00:00 10,3 9,2 25 14 29 16 ESE
18.10.2019 09:00:00 9,8 9,3 19 10 27 15 ESE
18.10.2019 08:00:00 10,3 9,8 21 11 32 17 SE
18.10.2019 07:00:00 11,1 10,2 18 10 22 12 SE
18.10.2019 06:00:00 11,6 9,8 14 8 25 13 S
18.10.2019 05:00:00 11,6 9,3 17 9 26 14 S
18.10.2019 04:00:00 11,7 9,8 13 7 19 11 S
18.10.2019 03:00:00 11,5 9,4 18 10 24 13 SW
18.10.2019 02:00:00 11,7 9,9 20 11 30 16 SW
18.10.2019 01:00:00 11,9 10,3 24 13 33 18 SW
18.10.2019 00:00:00 11,7 9,4 19 11 24 13 WSW
17.10.2019 23:00:00 11,9 10,1 18 10 27 15 WSW
17.10.2019 22:00:00 12,0 11,1 19 10 25 13 WSW
17.10.2019 21:00:00 12,4 11,9 15 8 19 10 SW
17.10.2019 20:00:00 12,3 11,8 16 8 18 10 SSW
17.10.2019 19:00:00 12,4 12,1 16 9 20 11 SW
17.10.2019 18:00:00 12,3 12,1 11 6 17 9 SSW
17.10.2019 17:00:00 12,3 12,1 13 7 33 18 SSW
17.10.2019 16:00:00 11,9 11,7 29 16 35 19 SSE
17.10.2019 15:00:00 11,8 11,5 28 15 34 18 SSE
17.10.2019 14:00:00 11,6 11,3 26 14 31 17 SE
17.10.2019 13:00:00 11,3 10,8 26 14 35 19 SE
17.10.2019 12:00:00 11,7 10,6 31 17 37 20 SSE
17.10.2019 11:00:00 11,8 11,0 22 12 30 16 SSE
17.10.2019 10:00:00 11,3 10,8 26 14 29 16 S
17.10.2019 09:00:00 11,1 10,9 18 10 23 13 S
17.10.2019 08:00:00 11,7 11,2 13 7 21 11 S
17.10.2019 07:00:00 11,6 11,1 8 4 9 5 S
17.10.2019 06:00:00 11,8 11,5 6 3 8 4 SSW
17.10.2019 05:00:00 11,9 11,4 6 3 8 5 WSW
17.10.2019 04:00:00 11,8 11,5 7 4 14 8 WNW
17.10.2019 03:00:00 12,0 11,8 13 7 16 9 W
17.10.2019 02:00:00 11,9 11,7 14 7 17 9 WNW
17.10.2019 01:00:00 11,6 11,4 5 3 8 4 W
17.10.2019 00:00:00 11,6 11,4 6 4 10 5 W
16.10.2019 23:00:00 11,7 11,5 4 2 11 6 NNW
16.10.2019 22:00:00 11,8 11,6 8 5 11 6 NNW
16.10.2019 21:00:00 11,8 11,6 10 5 11 6 NW
16.10.2019 20:00:00 11,9 11,7 10 5 12 6 WNW
16.10.2019 19:00:00 11,9 11,7 9 5 11 6 NNW
16.10.2019 18:00:00 12,0 11,7 8 5 17 9 N
16.10.2019 17:00:00 11,9 11,6 15 8 18 10 NNW
16.10.2019 16:00:00 11,9 11,6 9 5 16 9 N
16.10.2019 15:00:00 11,9 11,6 7 4 10 5 NNW
16.10.2019 14:00:00 12,2 12,0 4 2 5 3 WNW
16.10.2019 13:00:00 12,3 12,1 4 2 16 9 ENE
16.10.2019 12:00:00 12,0 11,8 9 5 13 7 NNE
16.10.2019 11:00:00 11,8 11,6 8 4 9 5 N
16.10.2019 10:00:00 11,9 11,7 2 1 4 2 ENE
16.10.2019 09:00:00 11,7 11,5 3 1 9 5 ESE
16.10.2019 08:00:00 11,6 11,4 9 5 13 7 E
16.10.2019 07:00:00 11,7 11,4 7 4 11 6 ESE
16.10.2019 06:00:00 11,7 11,5 9 5 10 5 SE
16.10.2019 05:00:00 11,8 11,6 7 4 11 6 SSE
16.10.2019 04:00:00 11,9 11,7 10 5 18 10 SSE
16.10.2019 03:00:00 11,9 11,7 16 9 26 14 SSE
16.10.2019 02:00:00 11,8 11,6 22 12 30 16 SSE
16.10.2019 01:00:00 11,8 11,6 25 14 31 17 SE
16.10.2019 00:00:00 11,9 11,6 27 15 32 18 SSE
15.10.2019 23:00:00 12,0 11,5 24 13 38 20 SSE
15.10.2019 22:00:00 12,5 11,2 33 18 39 21 SSE
15.10.2019 21:00:00 12,8 11,4 29 16 36 20 S
15.10.2019 20:00:00 12,7 11,3 18 10 22 12 SSE
15.10.2019 19:00:00 13,0 11,1 14 8 17 9 SSE
15.10.2019 18:00:00 13,1 10,6 7 4 15 8 SE
15.10.2019 17:00:00 13,8 11,0 16 8 29 16 SE
15.10.2019 16:00:00 13,2 10,7 18 10 22 12 SE
15.10.2019 15:00:00 13,6 10,8 17 9 19 11 ESE
15.10.2019 14:00:00 12,8 9,8 14 7 19 10 ENE
15.10.2019 13:00:00 12,1 9,1 12 6 17 9 NNE
15.10.2019 12:00:00 11,7 8,7 9 5 26 14 N
15.10.2019 11:00:00 11,4 8,6 24 13 35 19 SE
15.10.2019 10:00:00 10,8 8,4 29 16 52 28 ESE
15.10.2019 09:00:00 10,5 8,4 40 22 49 26 ESE
15.10.2019 08:00:00 10,1 8,4 40 21 47 25 ESE
15.10.2019 07:00:00 9,8 7,9 37 20 44 24 ESE
15.10.2019 06:00:00 9,4 7,5 21 11 39 21 E
15.10.2019 05:00:00 9,5 7,4 32 18 40 21 ESE
15.10.2019 04:00:00 9,4 7,0 27 15 35 19 E
15.10.2019 03:00:00 9,5 7,1 25 14 31 17 E
15.10.2019 02:00:00 9,6 6,9 22 12 26 14 ESE
15.10.2019 01:00:00 9,6 7,2 22 12 27 15 E
15.10.2019 00:00:00 9,6 7,2 20 11 23 12 E
14.10.2019 23:00:00 9,7 6,6 16 9 26 14 E

tt = temperature
td = dewpoint
ff = wind speed
fx = gusts
dd = wind direction

Next stations